sensor_id;sensor_type;location;lat;lon;timestamp;P1;durP1;ratioP1;P2;durP2;ratioP2
40433;SDS011;26146;51.114;5.654;2022-07-23T00:00:05;11.18;;;6.32;;
40433;SDS011;26146;51.114;5.654;2022-07-23T00:04:08;11.77;;;6.22;;
40433;SDS011;26146;51.114;5.654;2022-07-23T00:08:09;11.00;;;5.55;;
40433;SDS011;26146;51.114;5.654;2022-07-23T00:12:10;13.35;;;5.82;;
40433;SDS011;26146;51.114;5.654;2022-07-23T00:16:11;11.07;;;5.45;;
40433;SDS011;26146;51.114;5.654;2022-07-23T00:20:12;11.45;;;5.80;;
40433;SDS011;26146;51.114;5.654;2022-07-23T00:24:16;14.55;;;6.10;;
40433;SDS011;26146;51.114;5.654;2022-07-23T00:28:17;12.75;;;5.70;;
40433;SDS011;26146;51.114;5.654;2022-07-23T00:32:18;12.00;;;5.82;;
40433;SDS011;26146;51.114;5.654;2022-07-23T00:36:19;12.80;;;6.25;;
40433;SDS011;26146;51.114;5.654;2022-07-23T00:40:24;12.10;;;6.10;;
40433;SDS011;26146;51.114;5.654;2022-07-23T00:44:26;12.80;;;6.22;;
40433;SDS011;26146;51.114;5.654;2022-07-23T00:48:28;13.35;;;6.28;;
40433;SDS011;26146;51.114;5.654;2022-07-23T00:52:33;12.45;;;6.60;;
40433;SDS011;26146;51.114;5.654;2022-07-23T00:56:34;11.13;;;5.90;;
40433;SDS011;26146;51.114;5.654;2022-07-23T01:00:37;11.63;;;6.38;;
40433;SDS011;26146;51.114;5.654;2022-07-23T01:04:38;15.18;;;6.47;;
40433;SDS011;26146;51.114;5.654;2022-07-23T01:08:39;13.70;;;6.40;;
40433;SDS011;26146;51.114;5.654;2022-07-23T01:12:41;12.98;;;6.38;;
40433;SDS011;26146;51.114;5.654;2022-07-23T01:16:43;14.65;;;6.32;;
40433;SDS011;26146;51.114;5.654;2022-07-23T01:20:45;15.75;;;6.90;;
40433;SDS011;26146;51.114;5.654;2022-07-23T01:24:46;11.82;;;6.43;;
40433;SDS011;26146;51.114;5.654;2022-07-23T01:28:48;12.82;;;6.72;;
40433;SDS011;26146;51.114;5.654;2022-07-23T01:32:49;13.68;;;6.70;;
40433;SDS011;26146;51.114;5.654;2022-07-23T01:36:57;14.48;;;7.13;;
40433;SDS011;26146;51.114;5.654;2022-07-23T01:40:58;14.35;;;6.70;;
40433;SDS011;26146;51.114;5.654;2022-07-23T01:44:59;13.02;;;6.78;;
40433;SDS011;26146;51.114;5.654;2022-07-23T01:49:00;12.52;;;7.03;;
40433;SDS011;26146;51.114;5.654;2022-07-23T01:53:00;13.40;;;6.78;;
40433;SDS011;26146;51.114;5.654;2022-07-23T01:57:01;12.27;;;7.15;;
40433;SDS011;26146;51.114;5.654;2022-07-23T02:01:02;11.48;;;6.00;;
40433;SDS011;26146;51.114;5.654;2022-07-23T02:05:03;11.65;;;6.55;;
40433;SDS011;26146;51.114;5.654;2022-07-23T02:09:05;13.77;;;5.88;;
40433;SDS011;26146;51.114;5.654;2022-07-23T02:13:06;13.05;;;6.43;;
40433;SDS011;26146;51.114;5.654;2022-07-23T02:17:07;11.73;;;6.43;;
40433;SDS011;26146;51.114;5.654;2022-07-23T02:21:08;11.27;;;6.63;;
40433;SDS011;26146;51.114;5.654;2022-07-23T02:25:09;13.23;;;6.75;;
40433;SDS011;26146;51.114;5.654;2022-07-23T02:29:15;13.98;;;6.20;;
40433;SDS011;26146;51.114;5.654;2022-07-23T02:33:16;10.57;;;5.97;;
40433;SDS011;26146;51.114;5.654;2022-07-23T02:37:17;12.63;;;6.65;;
40433;SDS011;26146;51.114;5.654;2022-07-23T02:41:18;12.13;;;6.75;;
40433;SDS011;26146;51.114;5.654;2022-07-23T02:45:19;12.85;;;6.93;;
40433;SDS011;26146;51.114;5.654;2022-07-23T02:49:22;12.23;;;6.35;;
40433;SDS011;26146;51.114;5.654;2022-07-23T02:53:23;12.52;;;6.55;;
40433;SDS011;26146;51.114;5.654;2022-07-23T02:57:24;11.48;;;6.13;;
40433;SDS011;26146;51.114;5.654;2022-07-23T03:01:25;11.52;;;6.28;;
40433;SDS011;26146;51.114;5.654;2022-07-23T03:05:26;12.45;;;6.60;;
40433;SDS011;26146;51.114;5.654;2022-07-23T03:09:27;12.30;;;6.35;;
40433;SDS011;26146;51.114;5.654;2022-07-23T03:13:30;11.32;;;6.25;;
40433;SDS011;26146;51.114;5.654;2022-07-23T03:17:31;13.52;;;6.22;;
40433;SDS011;26146;51.114;5.654;2022-07-23T03:21:32;12.85;;;6.28;;
40433;SDS011;26146;51.114;5.654;2022-07-23T03:25:34;12.80;;;6.53;;
40433;SDS011;26146;51.114;5.654;2022-07-23T03:29:35;11.32;;;6.00;;
40433;SDS011;26146;51.114;5.654;2022-07-23T03:33:37;13.73;;;6.35;;
40433;SDS011;26146;51.114;5.654;2022-07-23T03:37:38;12.15;;;6.22;;
40433;SDS011;26146;51.114;5.654;2022-07-23T03:41:39;14.18;;;6.60;;
40433;SDS011;26146;51.114;5.654;2022-07-23T03:45:40;13.93;;;6.68;;
40433;SDS011;26146;51.114;5.654;2022-07-23T03:49:41;12.45;;;6.20;;
40433;SDS011;26146;51.114;5.654;2022-07-23T03:53:46;13.50;;;6.13;;
40433;SDS011;26146;51.114;5.654;2022-07-23T03:57:49;11.40;;;6.38;;
40433;SDS011;26146;51.114;5.654;2022-07-23T04:01:50;12.85;;;6.30;;
40433;SDS011;26146;51.114;5.654;2022-07-23T04:05:51;12.15;;;7.00;;
40433;SDS011;26146;51.114;5.654;2022-07-23T04:09:55;13.15;;;6.65;;
40433;SDS011;26146;51.114;5.654;2022-07-23T04:13:56;12.05;;;6.50;;
40433;SDS011;26146;51.114;5.654;2022-07-23T04:17:57;11.48;;;6.55;;
40433;SDS011;26146;51.114;5.654;2022-07-23T04:22:00;11.20;;;6.20;;
40433;SDS011;26146;51.114;5.654;2022-07-23T04:26:01;11.55;;;6.25;;
40433;SDS011;26146;51.114;5.654;2022-07-23T04:30:02;11.10;;;6.10;;
40433;SDS011;26146;51.114;5.654;2022-07-23T04:34:03;11.15;;;6.18;;
40433;SDS011;26146;51.114;5.654;2022-07-23T04:38:04;12.40;;;6.40;;
40433;SDS011;26146;51.114;5.654;2022-07-23T04:42:06;14.50;;;6.70;;
40433;SDS011;26146;51.114;5.654;2022-07-23T04:46:07;11.50;;;6.40;;
40433;SDS011;26146;51.114;5.654;2022-07-23T04:50:08;12.35;;;6.68;;
40433;SDS011;26146;51.114;5.654;2022-07-23T04:54:09;11.40;;;6.10;;
40433;SDS011;26146;51.114;5.654;2022-07-23T04:58:13;11.20;;;6.00;;
40433;SDS011;26146;51.114;5.654;2022-07-23T05:02:14;10.32;;;6.20;;
40433;SDS011;26146;51.114;5.654;2022-07-23T05:06:15;10.15;;;6.10;;
40433;SDS011;26146;51.114;5.654;2022-07-23T05:10:18;11.02;;;6.15;;
40433;SDS011;26146;51.114;5.654;2022-07-23T05:14:20;12.35;;;6.63;;
40433;SDS011;26146;51.114;5.654;2022-07-23T05:18:21;11.73;;;7.03;;
40433;SDS011;26146;51.114;5.654;2022-07-23T05:22:22;12.45;;;6.80;;
40433;SDS011;26146;51.114;5.654;2022-07-23T05:26:23;13.00;;;7.30;;
40433;SDS011;26146;51.114;5.654;2022-07-23T05:30:30;14.43;;;7.13;;
40433;SDS011;26146;51.114;5.654;2022-07-23T05:34:31;13.70;;;7.13;;
40433;SDS011;26146;51.114;5.654;2022-07-23T05:38:32;13.90;;;6.95;;
40433;SDS011;26146;51.114;5.654;2022-07-23T05:42:37;12.88;;;6.90;;
40433;SDS011;26146;51.114;5.654;2022-07-23T05:46:39;12.35;;;6.70;;
40433;SDS011;26146;51.114;5.654;2022-07-23T05:50:40;12.43;;;6.82;;
40433;SDS011;26146;51.114;5.654;2022-07-23T05:54:41;11.63;;;6.70;;
40433;SDS011;26146;51.114;5.654;2022-07-23T05:58:43;11.98;;;6.95;;
40433;SDS011;26146;51.114;5.654;2022-07-23T06:02:44;13.75;;;6.90;;
40433;SDS011;26146;51.114;5.654;2022-07-23T06:06:51;13.38;;;7.22;;
40433;SDS011;26146;51.114;5.654;2022-07-23T06:10:59;12.57;;;6.55;;
40433;SDS011;26146;51.114;5.654;2022-07-23T06:15:00;12.88;;;7.13;;
40433;SDS011;26146;51.114;5.654;2022-07-23T06:19:01;13.27;;;7.03;;
40433;SDS011;26146;51.114;5.654;2022-07-23T06:23:03;12.77;;;7.20;;
40433;SDS011;26146;51.114;5.654;2022-07-23T06:27:04;12.63;;;6.57;;
40433;SDS011;26146;51.114;5.654;2022-07-23T06:31:05;11.85;;;7.00;;
40433;SDS011;26146;51.114;5.654;2022-07-23T06:35:07;14.05;;;6.97;;
40433;SDS011;26146;51.114;5.654;2022-07-23T06:39:10;13.75;;;6.82;;
40433;SDS011;26146;51.114;5.654;2022-07-23T06:43:11;12.57;;;6.68;;
40433;SDS011;26146;51.114;5.654;2022-07-23T06:47:15;12.98;;;6.82;;
40433;SDS011;26146;51.114;5.654;2022-07-23T06:51:20;11.13;;;6.93;;
40433;SDS011;26146;51.114;5.654;2022-07-23T06:55:21;11.95;;;6.47;;
40433;SDS011;26146;51.114;5.654;2022-07-23T06:59:23;12.75;;;6.80;;
40433;SDS011;26146;51.114;5.654;2022-07-23T07:03:24;10.90;;;6.25;;
40433;SDS011;26146;51.114;5.654;2022-07-23T07:07:26;11.25;;;6.75;;
40433;SDS011;26146;51.114;5.654;2022-07-23T07:11:29;11.80;;;6.43;;
40433;SDS011;26146;51.114;5.654;2022-07-23T07:15:30;10.65;;;6.25;;
40433;SDS011;26146;51.114;5.654;2022-07-23T07:19:32;13.93;;;6.70;;
40433;SDS011;26146;51.114;5.654;2022-07-23T07:23:33;13.27;;;6.75;;
40433;SDS011;26146;51.114;5.654;2022-07-23T07:27:34;13.35;;;6.88;;
40433;SDS011;26146;51.114;5.654;2022-07-23T07:31:35;13.27;;;6.45;;
40433;SDS011;26146;51.114;5.654;2022-07-23T07:35:39;11.88;;;6.57;;
40433;SDS011;26146;51.114;5.654;2022-07-23T07:39:43;13.05;;;6.78;;
40433;SDS011;26146;51.114;5.654;2022-07-23T07:43:44;11.15;;;5.90;;
40433;SDS011;26146;51.114;5.654;2022-07-23T07:47:46;12.13;;;5.82;;
40433;SDS011;26146;51.114;5.654;2022-07-23T07:51:50;10.10;;;5.63;;
40433;SDS011;26146;51.114;5.654;2022-07-23T07:55:51;11.25;;;5.80;;
40433;SDS011;26146;51.114;5.654;2022-07-23T07:59:52;13.02;;;5.72;;
40433;SDS011;26146;51.114;5.654;2022-07-23T08:03:53;10.35;;;5.85;;
40433;SDS011;26146;51.114;5.654;2022-07-23T08:07:54;10.95;;;5.47;;
40433;SDS011;26146;51.114;5.654;2022-07-23T08:12:00;10.82;;;5.50;;
40433;SDS011;26146;51.114;5.654;2022-07-23T08:16:01;11.25;;;5.55;;
40433;SDS011;26146;51.114;5.654;2022-07-23T08:20:04;11.85;;;5.70;;
40433;SDS011;26146;51.114;5.654;2022-07-23T08:24:09;11.40;;;6.28;;
40433;SDS011;26146;51.114;5.654;2022-07-23T08:28:13;12.70;;;5.65;;
40433;SDS011;26146;51.114;5.654;2022-07-23T08:32:15;12.93;;;6.43;;
40433;SDS011;26146;51.114;5.654;2022-07-23T08:36:16;12.40;;;6.50;;
40433;SDS011;26146;51.114;5.654;2022-07-23T08:40:17;10.35;;;5.43;;
40433;SDS011;26146;51.114;5.654;2022-07-23T08:44:18;10.65;;;5.60;;
40433;SDS011;26146;51.114;5.654;2022-07-23T08:48:21;9.50;;;5.15;;
40433;SDS011;26146;51.114;5.654;2022-07-23T08:52:24;12.40;;;5.57;;
40433;SDS011;26146;51.114;5.654;2022-07-23T08:56:26;10.55;;;5.40;;
40433;SDS011;26146;51.114;5.654;2022-07-23T09:00:27;11.55;;;5.80;;
40433;SDS011;26146;51.114;5.654;2022-07-23T09:04:28;10.40;;;5.50;;
40433;SDS011;26146;51.114;5.654;2022-07-23T09:08:41;11.00;;;5.75;;
40433;SDS011;26146;51.114;5.654;2022-07-23T09:12:43;11.68;;;5.50;;
40433;SDS011;26146;51.114;5.654;2022-07-23T09:16:47;9.60;;;5.55;;
40433;SDS011;26146;51.114;5.654;2022-07-23T09:20:48;10.63;;;5.15;;
40433;SDS011;26146;51.114;5.654;2022-07-23T09:29:12;8.82;;;4.60;;
40433;SDS011;26146;51.114;5.654;2022-07-23T09:33:24;8.32;;;4.60;;
40433;SDS011;26146;51.114;5.654;2022-07-23T09:37:28;9.32;;;4.60;;
40433;SDS011;26146;51.114;5.654;2022-07-23T09:41:37;12.02;;;4.88;;
40433;SDS011;26146;51.114;5.654;2022-07-23T09:45:42;10.10;;;4.47;;
40433;SDS011;26146;51.114;5.654;2022-07-23T09:49:58;10.60;;;5.40;;
40433;SDS011;26146;51.114;5.654;2022-07-23T09:54:00;9.32;;;4.70;;
40433;SDS011;26146;51.114;5.654;2022-07-23T09:58:20;9.88;;;5.03;;
40433;SDS011;26146;51.114;5.654;2022-07-23T10:02:22;10.13;;;4.30;;
40433;SDS011;26146;51.114;5.654;2022-07-23T10:06:28;8.50;;;3.63;;
40433;SDS011;26146;51.114;5.654;2022-07-23T10:10:31;8.35;;;3.75;;
40433;SDS011;26146;51.114;5.654;2022-07-23T10:14:32;7.25;;;3.30;;
40433;SDS011;26146;51.114;5.654;2022-07-23T10:18:37;7.93;;;2.90;;
40433;SDS011;26146;51.114;5.654;2022-07-23T10:22:40;8.97;;;3.50;;
40433;SDS011;26146;51.114;5.654;2022-07-23T10:35:37;7.47;;;3.08;;
40433;SDS011;26146;51.114;5.654;2022-07-23T10:39:42;8.82;;;3.08;;
40433;SDS011;26146;51.114;5.654;2022-07-23T10:43:43;8.60;;;3.38;;
40433;SDS011;26146;51.114;5.654;2022-07-23T10:52:29;7.05;;;2.90;;
40433;SDS011;26146;51.114;5.654;2022-07-23T11:00:56;6.80;;;2.70;;
40433;SDS011;26146;51.114;5.654;2022-07-23T11:05:01;5.20;;;2.10;;
40433;SDS011;26146;51.114;5.654;2022-07-23T11:09:25;7.88;;;2.30;;
40433;SDS011;26146;51.114;5.654;2022-07-23T11:13:46;6.43;;;2.65;;
40433;SDS011;26146;51.114;5.654;2022-07-23T11:21:52;6.20;;;2.08;;
40433;SDS011;26146;51.114;5.654;2022-07-23T11:25:54;6.13;;;2.30;;
40433;SDS011;26146;51.114;5.654;2022-07-23T11:30:09;6.53;;;2.30;;
40433;SDS011;26146;51.114;5.654;2022-07-23T11:34:34;7.95;;;2.30;;
40433;SDS011;26146;51.114;5.654;2022-07-23T11:38:49;5.57;;;1.80;;
40433;SDS011;26146;51.114;5.654;2022-07-23T11:47:05;6.13;;;2.08;;
40433;SDS011;26146;51.114;5.654;2022-07-23T11:51:08;6.32;;;2.00;;
40433;SDS011;26146;51.114;5.654;2022-07-23T11:55:09;5.78;;;1.90;;
40433;SDS011;26146;51.114;5.654;2022-07-23T11:59:11;5.80;;;1.80;;
40433;SDS011;26146;51.114;5.654;2022-07-23T12:03:13;5.72;;;1.95;;
40433;SDS011;26146;51.114;5.654;2022-07-23T12:11:25;6.78;;;2.20;;
40433;SDS011;26146;51.114;5.654;2022-07-23T12:15:33;6.82;;;1.75;;
40433;SDS011;26146;51.114;5.654;2022-07-23T12:19:38;5.53;;;1.50;;
40433;SDS011;26146;51.114;5.654;2022-07-23T12:23:42;3.97;;;1.10;;
40433;SDS011;26146;51.114;5.654;2022-07-23T12:32:25;7.15;;;1.55;;
40433;SDS011;26146;51.114;5.654;2022-07-23T12:36:36;5.60;;;1.58;;
40433;SDS011;26146;51.114;5.654;2022-07-23T12:40:44;4.22;;;1.30;;
40433;SDS011;26146;51.114;5.654;2022-07-23T12:45:04;6.13;;;1.50;;
40433;SDS011;26146;51.114;5.654;2022-07-23T12:49:12;4.85;;;1.60;;
40433;SDS011;26146;51.114;5.654;2022-07-23T12:57:47;5.40;;;1.73;;
40433;SDS011;26146;51.114;5.654;2022-07-23T13:01:55;5.68;;;1.40;;
40433;SDS011;26146;51.114;5.654;2022-07-23T13:06:03;4.90;;;1.50;;
40433;SDS011;26146;51.114;5.654;2022-07-23T13:10:09;5.20;;;1.40;;
40433;SDS011;26146;51.114;5.654;2022-07-23T13:14:12;5.05;;;1.40;;
40433;SDS011;26146;51.114;5.654;2022-07-23T13:18:18;4.55;;;1.40;;
40433;SDS011;26146;51.114;5.654;2022-07-23T13:22:23;5.05;;;1.27;;
40433;SDS011;26146;51.114;5.654;2022-07-23T13:26:25;4.38;;;1.40;;
40433;SDS011;26146;51.114;5.654;2022-07-23T13:30:32;5.30;;;1.55;;
40433;SDS011;26146;51.114;5.654;2022-07-23T13:34:33;4.82;;;1.48;;
40433;SDS011;26146;51.114;5.654;2022-07-23T13:38:38;5.45;;;1.80;;
40433;SDS011;26146;51.114;5.654;2022-07-23T13:42:42;5.28;;;1.40;;
40433;SDS011;26146;51.114;5.654;2022-07-23T13:46:43;4.65;;;1.33;;
40433;SDS011;26146;51.114;5.654;2022-07-23T13:50:44;5.07;;;1.55;;
40433;SDS011;26146;51.114;5.654;2022-07-23T13:54:49;5.53;;;1.50;;
40433;SDS011;26146;51.114;5.654;2022-07-23T13:58:51;5.53;;;1.50;;
40433;SDS011;26146;51.114;5.654;2022-07-23T14:02:52;5.13;;;1.55;;
40433;SDS011;26146;51.114;5.654;2022-07-23T14:06:53;5.20;;;1.67;;
40433;SDS011;26146;51.114;5.654;2022-07-23T14:10:54;5.30;;;1.50;;
40433;SDS011;26146;51.114;5.654;2022-07-23T14:14:55;5.15;;;1.70;;
40433;SDS011;26146;51.114;5.654;2022-07-23T14:18:56;4.75;;;1.70;;
40433;SDS011;26146;51.114;5.654;2022-07-23T14:22:59;7.50;;;1.43;;
40433;SDS011;26146;51.114;5.654;2022-07-23T14:27:03;5.13;;;1.60;;
40433;SDS011;26146;51.114;5.654;2022-07-23T14:35:07;4.80;;;1.40;;
40433;SDS011;26146;51.114;5.654;2022-07-23T14:39:09;6.35;;;1.90;;
40433;SDS011;26146;51.114;5.654;2022-07-23T14:43:10;5.80;;;1.60;;
40433;SDS011;26146;51.114;5.654;2022-07-23T14:47:11;5.55;;;1.70;;
40433;SDS011;26146;51.114;5.654;2022-07-23T14:51:12;5.00;;;1.50;;
40433;SDS011;26146;51.114;5.654;2022-07-23T14:55:16;5.80;;;1.70;;
40433;SDS011;26146;51.114;5.654;2022-07-23T14:59:24;4.90;;;1.65;;
40433;SDS011;26146;51.114;5.654;2022-07-23T15:03:33;5.40;;;1.52;;
40433;SDS011;26146;51.114;5.654;2022-07-23T15:07:34;4.70;;;1.50;;
40433;SDS011;26146;51.114;5.654;2022-07-23T15:11:41;6.97;;;1.60;;
40433;SDS011;26146;51.114;5.654;2022-07-23T15:15:42;5.95;;;1.58;;
40433;SDS011;26146;51.114;5.654;2022-07-23T15:19:46;6.32;;;1.52;;
40433;SDS011;26146;51.114;5.654;2022-07-23T15:27:51;5.75;;;1.52;;
40433;SDS011;26146;51.114;5.654;2022-07-23T15:31:52;5.07;;;1.50;;
40433;SDS011;26146;51.114;5.654;2022-07-23T15:35:53;5.20;;;1.67;;
40433;SDS011;26146;51.114;5.654;2022-07-23T15:39:56;5.07;;;1.63;;
40433;SDS011;26146;51.114;5.654;2022-07-23T15:44:06;4.47;;;1.50;;
40433;SDS011;26146;51.114;5.654;2022-07-23T15:48:08;5.07;;;1.70;;
40433;SDS011;26146;51.114;5.654;2022-07-23T15:52:09;5.38;;;1.60;;
40433;SDS011;26146;51.114;5.654;2022-07-23T15:56:15;6.20;;;1.70;;
40433;SDS011;26146;51.114;5.654;2022-07-23T16:00:16;5.40;;;1.60;;
40433;SDS011;26146;51.114;5.654;2022-07-23T16:04:19;5.90;;;1.77;;
40433;SDS011;26146;51.114;5.654;2022-07-23T16:08:20;5.10;;;1.50;;
40433;SDS011;26146;51.114;5.654;2022-07-23T16:12:21;5.82;;;1.30;;
40433;SDS011;26146;51.114;5.654;2022-07-23T16:16:25;5.45;;;1.63;;
40433;SDS011;26146;51.114;5.654;2022-07-23T16:20:29;5.30;;;1.58;;
40433;SDS011;26146;51.114;5.654;2022-07-23T16:24:34;5.43;;;1.60;;
40433;SDS011;26146;51.114;5.654;2022-07-23T16:28:38;5.47;;;1.55;;
40433;SDS011;26146;51.114;5.654;2022-07-23T16:32:40;6.63;;;1.70;;
40433;SDS011;26146;51.114;5.654;2022-07-23T16:36:42;6.63;;;1.70;;
40433;SDS011;26146;51.114;5.654;2022-07-23T16:40:42;5.68;;;1.60;;
40433;SDS011;26146;51.114;5.654;2022-07-23T16:44:43;6.15;;;1.70;;
40433;SDS011;26146;51.114;5.654;2022-07-23T16:48:45;4.32;;;1.45;;
40433;SDS011;26146;51.114;5.654;2022-07-23T16:52:49;5.57;;;1.77;;
40433;SDS011;26146;51.114;5.654;2022-07-23T17:00:53;6.70;;;1.63;;
40433;SDS011;26146;51.114;5.654;2022-07-23T17:04:54;5.18;;;1.60;;
40433;SDS011;26146;51.114;5.654;2022-07-23T17:08:56;5.00;;;1.73;;
40433;SDS011;26146;51.114;5.654;2022-07-23T17:12:58;5.45;;;1.70;;
40433;SDS011;26146;51.114;5.654;2022-07-23T17:16:59;6.00;;;1.75;;
40433;SDS011;26146;51.114;5.654;2022-07-23T17:21:00;5.20;;;1.60;;
40433;SDS011;26146;51.114;5.654;2022-07-23T17:25:09;5.78;;;1.80;;
40433;SDS011;26146;51.114;5.654;2022-07-23T17:29:14;5.60;;;1.73;;
40433;SDS011;26146;51.114;5.654;2022-07-23T17:33:15;6.63;;;1.80;;
40433;SDS011;26146;51.114;5.654;2022-07-23T17:37:15;5.95;;;1.80;;
40433;SDS011;26146;51.114;5.654;2022-07-23T17:41:17;5.88;;;1.67;;
40433;SDS011;26146;51.114;5.654;2022-07-23T17:45:18;5.25;;;1.80;;
40433;SDS011;26146;51.114;5.654;2022-07-23T17:49:21;5.40;;;1.80;;
40433;SDS011;26146;51.114;5.654;2022-07-23T17:53:25;6.20;;;2.30;;
40433;SDS011;26146;51.114;5.654;2022-07-23T17:57:27;8.32;;;1.90;;
40433;SDS011;26146;51.114;5.654;2022-07-23T18:01:29;6.57;;;1.90;;
40433;SDS011;26146;51.114;5.654;2022-07-23T18:05:33;4.90;;;1.60;;
40433;SDS011;26146;51.114;5.654;2022-07-23T18:09:34;6.53;;;1.98;;
40433;SDS011;26146;51.114;5.654;2022-07-23T18:13:35;7.75;;;1.92;;
40433;SDS011;26146;51.114;5.654;2022-07-23T18:17:40;5.53;;;1.90;;
40433;SDS011;26146;51.114;5.654;2022-07-23T18:21:43;5.50;;;1.90;;
40433;SDS011;26146;51.114;5.654;2022-07-23T18:25:47;5.78;;;1.90;;
40433;SDS011;26146;51.114;5.654;2022-07-23T18:29:49;9.25;;;2.50;;
40433;SDS011;26146;51.114;5.654;2022-07-23T18:33:49;7.07;;;2.35;;
40433;SDS011;26146;51.114;5.654;2022-07-23T18:37:50;6.25;;;2.10;;
40433;SDS011;26146;51.114;5.654;2022-07-23T18:41:51;5.22;;;1.90;;
40433;SDS011;26146;51.114;5.654;2022-07-23T18:45:52;6.00;;;1.98;;
40433;SDS011;26146;51.114;5.654;2022-07-23T18:49:58;7.72;;;2.80;;
40433;SDS011;26146;51.114;5.654;2022-07-23T18:53:59;6.72;;;2.42;;
40433;SDS011;26146;51.114;5.654;2022-07-23T18:58:00;5.60;;;2.20;;
40433;SDS011;26146;51.114;5.654;2022-07-23T19:02:04;6.00;;;2.00;;
40433;SDS011;26146;51.114;5.654;2022-07-23T19:06:05;6.03;;;2.15;;
40433;SDS011;26146;51.114;5.654;2022-07-23T19:10:06;6.32;;;2.22;;
40433;SDS011;26146;51.114;5.654;2022-07-23T19:14:10;7.03;;;2.70;;
40433;SDS011;26146;51.114;5.654;2022-07-23T19:18:12;5.60;;;2.25;;
40433;SDS011;26146;51.114;5.654;2022-07-23T19:22:13;5.47;;;2.13;;
40433;SDS011;26146;51.114;5.654;2022-07-23T19:26:14;6.90;;;2.30;;
40433;SDS011;26146;51.114;5.654;2022-07-23T19:30:15;8.02;;;2.50;;
40433;SDS011;26146;51.114;5.654;2022-07-23T19:34:16;5.72;;;2.10;;
40433;SDS011;26146;51.114;5.654;2022-07-23T19:38:18;6.32;;;2.30;;
40433;SDS011;26146;51.114;5.654;2022-07-23T19:42:19;7.68;;;2.30;;
40433;SDS011;26146;51.114;5.654;2022-07-23T19:46:20;6.88;;;2.45;;
40433;SDS011;26146;51.114;5.654;2022-07-23T19:50:21;6.57;;;2.60;;
40433;SDS011;26146;51.114;5.654;2022-07-23T19:54:23;6.10;;;2.38;;
40433;SDS011;26146;51.114;5.654;2022-07-23T19:58:24;6.50;;;2.53;;
40433;SDS011;26146;51.114;5.654;2022-07-23T20:02:28;7.95;;;2.55;;
40433;SDS011;26146;51.114;5.654;2022-07-23T20:06:32;5.50;;;2.00;;
40433;SDS011;26146;51.114;5.654;2022-07-23T20:10:33;6.30;;;2.47;;
40433;SDS011;26146;51.114;5.654;2022-07-23T20:14:37;7.10;;;2.78;;
40433;SDS011;26146;51.114;5.654;2022-07-23T20:18:38;7.70;;;2.60;;
40433;SDS011;26146;51.114;5.654;2022-07-23T20:22:39;6.38;;;2.60;;
40433;SDS011;26146;51.114;5.654;2022-07-23T20:26:41;7.40;;;2.80;;
40433;SDS011;26146;51.114;5.654;2022-07-23T20:30:42;6.68;;;2.60;;
40433;SDS011;26146;51.114;5.654;2022-07-23T20:34:46;6.15;;;2.20;;
40433;SDS011;26146;51.114;5.654;2022-07-23T20:38:47;8.45;;;2.80;;
40433;SDS011;26146;51.114;5.654;2022-07-23T20:42:48;11.68;;;3.45;;
40433;SDS011;26146;51.114;5.654;2022-07-23T20:46:50;6.40;;;2.47;;
40433;SDS011;26146;51.114;5.654;2022-07-23T20:50:51;6.65;;;2.50;;
40433;SDS011;26146;51.114;5.654;2022-07-23T20:54:52;7.28;;;2.85;;
40433;SDS011;26146;51.114;5.654;2022-07-23T20:58:53;9.32;;;2.80;;
40433;SDS011;26146;51.114;5.654;2022-07-23T21:02:54;9.13;;;2.75;;
40433;SDS011;26146;51.114;5.654;2022-07-23T21:06:55;7.57;;;2.90;;
40433;SDS011;26146;51.114;5.654;2022-07-23T21:10:58;8.65;;;2.90;;
40433;SDS011;26146;51.114;5.654;2022-07-23T21:15:03;8.43;;;3.10;;
40433;SDS011;26146;51.114;5.654;2022-07-23T21:19:08;7.47;;;2.90;;
40433;SDS011;26146;51.114;5.654;2022-07-23T21:23:09;7.32;;;2.90;;
40433;SDS011;26146;51.114;5.654;2022-07-23T21:27:11;7.82;;;3.00;;
40433;SDS011;26146;51.114;5.654;2022-07-23T21:31:15;8.10;;;3.10;;
40433;SDS011;26146;51.114;5.654;2022-07-23T21:35:19;8.07;;;3.38;;
40433;SDS011;26146;51.114;5.654;2022-07-23T21:39:23;7.03;;;3.10;;
40433;SDS011;26146;51.114;5.654;2022-07-23T21:43:27;7.13;;;3.30;;
40433;SDS011;26146;51.114;5.654;2022-07-23T21:47:28;6.93;;;3.50;;
40433;SDS011;26146;51.114;5.654;2022-07-23T21:51:29;7.95;;;3.88;;
40433;SDS011;26146;51.114;5.654;2022-07-23T21:55:30;7.55;;;3.67;;
40433;SDS011;26146;51.114;5.654;2022-07-23T21:59:32;7.20;;;3.83;;
40433;SDS011;26146;51.114;5.654;2022-07-23T22:03:33;8.68;;;4.13;;
40433;SDS011;26146;51.114;5.654;2022-07-23T22:07:34;8.48;;;3.88;;
40433;SDS011;26146;51.114;5.654;2022-07-23T22:11:41;8.68;;;4.10;;
40433;SDS011;26146;51.114;5.654;2022-07-23T22:15:45;7.80;;;3.58;;
40433;SDS011;26146;51.114;5.654;2022-07-23T22:19:46;9.05;;;3.22;;
40433;SDS011;26146;51.114;5.654;2022-07-23T22:23:50;8.20;;;3.38;;
40433;SDS011;26146;51.114;5.654;2022-07-23T22:27:51;6.75;;;3.00;;
40433;SDS011;26146;51.114;5.654;2022-07-23T22:31:52;6.82;;;3.10;;
40433;SDS011;26146;51.114;5.654;2022-07-23T22:35:53;8.55;;;3.35;;
40433;SDS011;26146;51.114;5.654;2022-07-23T22:39:57;7.22;;;3.47;;
40433;SDS011;26146;51.114;5.654;2022-07-23T22:43:58;7.90;;;3.95;;
40433;SDS011;26146;51.114;5.654;2022-07-23T22:47:59;7.78;;;3.67;;
40433;SDS011;26146;51.114;5.654;2022-07-23T22:52:03;7.40;;;3.80;;
40433;SDS011;26146;51.114;5.654;2022-07-23T22:56:04;7.28;;;3.80;;
40433;SDS011;26146;51.114;5.654;2022-07-23T23:00:06;9.70;;;4.40;;
40433;SDS011;26146;51.114;5.654;2022-07-23T23:04:08;8.43;;;4.47;;
40433;SDS011;26146;51.114;5.654;2022-07-23T23:08:11;8.98;;;4.72;;
40433;SDS011;26146;51.114;5.654;2022-07-23T23:12:12;9.02;;;4.55;;
40433;SDS011;26146;51.114;5.654;2022-07-23T23:16:13;8.25;;;4.45;;
40433;SDS011;26146;51.114;5.654;2022-07-23T23:20:14;8.57;;;4.20;;
40433;SDS011;26146;51.114;5.654;2022-07-23T23:24:15;8.80;;;4.22;;
40433;SDS011;26146;51.114;5.654;2022-07-23T23:28:16;8.32;;;4.30;;
40433;SDS011;26146;51.114;5.654;2022-07-23T23:32:20;9.48;;;4.25;;
40433;SDS011;26146;51.114;5.654;2022-07-23T23:36:23;8.88;;;4.75;;
40433;SDS011;26146;51.114;5.654;2022-07-23T23:40:24;8.43;;;4.60;;
40433;SDS011;26146;51.114;5.654;2022-07-23T23:44:25;9.23;;;4.82;;
40433;SDS011;26146;51.114;5.654;2022-07-23T23:48:26;9.73;;;4.63;;
40433;SDS011;26146;51.114;5.654;2022-07-23T23:52:27;8.52;;;4.63;;
40433;SDS011;26146;51.114;5.654;2022-07-23T23:56:30;9.65;;;4.85;;
